KBHC

Baxley Municipal Airport

Baxley, Georgia, USA
METAR KBHC 221535Z AUTO 20007KT 10SM SCT019 BKN025 BKN038 26/23 A3012 RMK AO2 LTG DSNT E
Observed Flight Rules
May-22 @ 15:35 UTC (19 minutes ago) Marginal Visual Flight Rules
Wind Visibility Clouds
200° at 7 knots 10 miles
  • Scattered at 1,900' AGL
  • Broken at 2,500' AGL
  • Broken at 3,800' AGL
Temperatures Readings
Current 26°C / 79°F
Dewpoint 23°C / 73°F
Humidity 84%
Altimeter 30.12" Hg
Pressure 1020 hPa
Elevation 61
METAR KBHC 221535Z AUTO 20007KT 10SM SCT019 BKN025 BKN038 26/23 A3012 RMK AO2 LTG DSNT E
Observed Flight Rules
May-22 @ 15:35 UTC
(19 minutes ago)
MVFR
Wind Visibility
200° at 7 knots 10 miles
Clouds
  • Scattered at 1,900' AGL
  • Broken at 2,500' AGL
  • Broken at 3,800' AGL
Temperature Dewpoint
26°C / 79°F 23°C / 73°F
Humidity Altimeter Pressure
84% 30.12" Hg 1020 hPa